Keerbergen, Belgium
Current Conditions -  °F | °C
As of 10:50 AM on Saturday 29 Nov 2014 (Local Time) from EBBR Reporting Station
Clear Clear  
Wind Chill: 37°   Ceiling: Unl
Heat Index: 41°   Visibility: 6mi
Dew Point: 36°   Wind: 6mph
Humidity: 81%   Direction: 90°E
Pressure: 29.91"   Gusts: NA
Location:  51°N, 4.63°E
Report Text: EBBR 290950Z 09005KT 9000 NSC 05/02 Q1013 NOSIG
Loading
Personal Weather Stations






























Interactive Weather Map New forecast layout! Learn more

10-Day Weather Forecast

Advertisements
Track Severe Weather on mobile